Current | Forecast
Updated: 3:00 PM +08 on April 27, 2018
Observed at Irkutsk, Russia
Temperature 46°F
Windchill 38°F
Humidity 57%
Dew Point 32°F
Wind NW at 27 mph
Pressure 30.06 in (Rising)
Conditions Overcast
Visibility 6.2 miles
UV 2 out of 16
Clouds Overcast (OVC) : 4000 ft
Yesterday's Maximum 75°F
Yesterday's Minimum 43°F approx.
Yesterday's Heating Degree Days 6 approx.
Sunrise5:41 AM +08
Sunset8:21 PM +08
Moon Rise4:54 PM +08
Moon Set5:01 AM +08
Moon PhaseMoon Phase
Waxing Gibbous
Raw METARMETAR UIII 270700Z 31012MPS 9999 OVC040CB 08/00 Q1018 R30/CLRD60 NOSIG RMK QFE719/0958


Monday
. High: 60° F.
Tuesday
. High: 44° F.
Wednesday
. High: 48° F.
Thursday
. High: 48° F.
Friday
. High: 53° F.
Saturday
. High: 60° F.
Sunday
. High: 62° F.
Monday
. High: 71° F.

Units: English | Metric

Find the Weather for any City, State or Zipcode, or Country:

U.S. State List | Severe Weather | Tropical Storms | Ski Conditions
United States | Canada | Central America | South America | Asia | Europe | Australia | Africa | Islands

Weather Underground

© Copyright 2018
The Weather Company, LLC